createdAt,value
2019-02-24T00:00:40.945Z,55.72
2019-02-24T00:05:46.209Z,56.14
2019-02-24T00:10:51.490Z,56.10
2019-02-24T00:15:56.737Z,56.65
2019-02-24T00:21:02.237Z,57.08
2019-02-24T00:26:07.431Z,56.35
2019-02-24T00:31:12.915Z,56.55
2019-02-24T00:36:18.104Z,57.19
2019-02-24T00:41:23.286Z,57.13
2019-02-24T00:46:28.901Z,57.32
2019-02-24T00:51:34.303Z,56.67
2019-02-24T00:56:39.559Z,57.05
2019-02-24T01:01:44.760Z,57.31
2019-02-24T01:06:50.292Z,57.45
2019-02-24T01:11:55.494Z,57.96
2019-02-24T01:17:01.055Z,58.37
2019-02-24T01:22:06.602Z,57.68
2019-02-24T01:27:12.185Z,57.94
2019-02-24T01:32:17.473Z,58.70
2019-02-24T01:37:22.751Z,57.69
2019-02-24T01:42:28.040Z,58.02
2019-02-24T01:47:34.286Z,57.35
2019-02-24T01:52:39.761Z,57.11
2019-02-24T01:57:45.289Z,57.30
2019-02-24T02:02:50.975Z,57.67
2019-02-24T02:07:56.201Z,57.50
2019-02-24T02:13:01.457Z,57.93
2019-02-24T02:18:07.055Z,58.11
2019-02-24T02:23:12.248Z,56.98
2019-02-24T02:28:18.404Z,58.00
2019-02-24T02:33:23.842Z,57.40
2019-02-24T02:38:29.040Z,56.88
2019-02-24T02:43:34.516Z,56.42
2019-02-24T02:48:39.970Z,56.70
2019-02-24T02:53:45.229Z,57.66
2019-02-24T02:58:54.395Z,57.50
2019-02-24T03:03:58.575Z,57.83
2019-02-24T03:09:05.491Z,58.11
2019-02-24T03:14:12.299Z,59.84
2019-02-24T03:19:17.495Z,59.79
2019-02-24T03:24:22.702Z,60.05
2019-02-24T03:29:28.205Z,59.59
2019-02-24T03:34:33.397Z,59.65
2019-02-24T03:39:39.210Z,58.17
2019-02-24T03:44:44.429Z,57.36
2019-02-24T03:49:49.728Z,57.10
2019-02-24T03:54:55.257Z,60.15
2019-02-24T04:00:00.556Z,60.85
2019-02-24T04:05:06.117Z,59.96
2019-02-24T04:10:11.876Z,60.03
2019-02-24T04:15:17.180Z,60.27
2019-02-24T04:20:22.277Z,59.83
2019-02-24T04:25:27.367Z,61.09
2019-02-24T04:30:32.532Z,61.65
2019-02-24T04:35:37.944Z,61.71
2019-02-24T04:40:43.830Z,61.05
2019-02-24T04:45:48.951Z,61.56
2019-02-24T04:50:53.970Z,62.43
2019-02-24T04:55:58.970Z,64.04
2019-02-24T05:01:05.156Z,64.67
2019-02-24T05:06:10.579Z,65.97
2019-02-24T05:11:15.734Z,66.52
2019-02-24T05:16:20.817Z,67.37
2019-02-24T05:21:26.754Z,67.57
2019-02-24T05:26:32.133Z,67.86
2019-02-24T05:31:37.136Z,67.79
2019-02-24T05:36:42.457Z,66.34
2019-02-24T05:41:47.613Z,66.41
2019-02-24T05:46:52.835Z,66.09
2019-02-24T05:51:58.433Z,66.38
2019-02-24T05:57:03.590Z,66.33
2019-02-24T06:02:08.742Z,66.82
2019-02-24T06:07:13.854Z,67.53
2019-02-24T06:12:19.433Z,68.36
2019-02-24T06:17:24.971Z,68.21
2019-02-24T06:22:30.057Z,69.04
2019-02-24T06:27:35.129Z,68.92
2019-02-24T06:32:40.507Z,68.99
2019-02-24T06:37:45.573Z,68.76
2019-02-24T06:42:51.944Z,68.80
2019-02-24T06:47:57.362Z,68.97
2019-02-24T06:53:02.508Z,68.49
2019-02-24T06:58:07.910Z,68.96
2019-02-24T07:03:13.627Z,68.57
2019-02-24T07:08:19.604Z,68.81
2019-02-24T07:13:24.840Z,68.01
2019-02-24T07:18:30.375Z,68.21
2019-02-24T07:23:35.730Z,67.43
2019-02-24T07:28:40.815Z,67.87
2019-02-24T07:33:46.167Z,67.73
2019-02-24T07:38:51.178Z,67.20
2019-02-24T07:43:56.375Z,67.41
2019-02-24T07:49:01.918Z,67.60
2019-02-24T07:54:08.363Z,68.53
2019-02-24T07:59:13.520Z,69.23
2019-02-24T08:04:18.781Z,69.79
2019-02-24T08:09:23.871Z,70.66
2019-02-24T08:14:29.265Z,70.35
2019-02-24T08:19:34.722Z,70.48
2019-02-24T08:24:39.977Z,68.97
2019-02-24T08:29:45.432Z,69.35
2019-02-24T08:34:52.919Z,68.86
2019-02-24T08:39:57.703Z,67.38
2019-02-24T08:45:03.303Z,65.20
2019-02-24T08:50:09.084Z,65.36
2019-02-24T08:55:14.258Z,63.07
2019-02-24T09:00:19.661Z,63.16
2019-02-24T09:05:24.870Z,63.74
2019-02-24T09:10:29.942Z,63.75
2019-02-24T09:15:35.309Z,63.55
2019-02-24T09:20:40.558Z,63.49
2019-02-24T09:25:46.933Z,63.21
2019-02-24T09:31:00.508Z,63.53
2019-02-24T09:35:59.269Z,62.55
2019-02-24T09:41:04.418Z,61.04
2019-02-24T09:46:09.526Z,59.85
2019-02-24T09:51:14.502Z,60.40
2019-02-24T09:56:19.584Z,59.58
2019-02-24T10:01:25.160Z,59.17
2019-02-24T10:06:30.330Z,56.35
2019-02-24T10:11:35.552Z,55.65
2019-02-24T10:16:40.740Z,54.93
2019-02-24T10:21:46.517Z,54.11
2019-02-24T10:26:52.921Z,52.28
2019-02-24T10:31:58.106Z,50.77
2019-02-24T10:37:03.589Z,49.81
2019-02-24T10:42:08.737Z,50.92
2019-02-24T10:47:13.846Z,48.99
2019-02-24T10:52:20.306Z,46.69
2019-02-24T10:57:25.790Z,45.80
2019-02-24T11:02:31.255Z,46.48
2019-02-24T11:07:36.431Z,45.71
2019-02-24T11:12:41.777Z,45.06
2019-02-24T11:17:46.962Z,43.80
2019-02-24T11:22:52.175Z,45.19
2019-02-24T11:27:57.379Z,42.21
2019-02-24T11:33:03.255Z,41.37
2019-02-24T11:38:08.301Z,43.14
2019-02-24T11:43:15.399Z,41.73
2019-02-24T11:48:20.553Z,41.73
2019-02-24T11:53:26.109Z,41.59
2019-02-24T11:58:31.259Z,42.72
2019-02-24T12:03:36.479Z,42.31
2019-02-24T12:08:41.852Z,42.63
2019-02-24T12:13:46.849Z,41.33
2019-02-24T12:18:51.989Z,39.06
2019-02-24T12:23:57.676Z,41.13
2019-02-24T12:29:02.838Z,41.29
2019-02-24T12:34:07.998Z,42.65
2019-02-24T12:39:13.192Z,42.47
2019-02-24T12:44:18.301Z,40.27
2019-02-24T12:49:23.712Z,39.54
2019-02-24T12:54:29.393Z,37.86
2019-02-24T12:59:35.619Z,29.94
2019-02-24T13:04:40.929Z,30.76
2019-02-24T13:09:47.186Z,28.35
2019-02-24T13:14:52.931Z,24.84
2019-02-24T13:19:58.462Z,25.11
2019-02-24T13:25:03.760Z,25.25
2019-02-24T13:30:09.369Z,23.77
2019-02-24T13:35:14.681Z,23.98
2019-02-24T13:40:20.157Z,22.02
2019-02-24T13:45:30.091Z,23.80
2019-02-24T13:50:36.042Z,22.99
2019-02-24T13:55:41.274Z,24.96
2019-02-24T14:00:46.520Z,23.90
2019-02-24T14:05:51.791Z,24.61
2019-02-24T14:10:56.956Z,23.92
2019-02-24T14:16:04.115Z,24.94
2019-02-24T14:21:09.274Z,24.08
2019-02-24T14:26:15.811Z,23.57
2019-02-24T14:31:20.945Z,23.33
2019-02-24T14:36:27.829Z,22.92
2019-02-24T14:41:33.290Z,22.65
2019-02-24T14:46:39.281Z,23.79
2019-02-24T14:51:44.569Z,22.72
2019-02-24T14:56:50.213Z,22.78
2019-02-24T15:01:55.504Z,21.84
2019-02-24T15:07:02.576Z,22.35
2019-02-24T15:12:07.858Z,23.54
2019-02-24T15:17:13.395Z,23.86
2019-02-24T15:22:18.531Z,26.18
2019-02-24T15:27:23.778Z,27.80
2019-02-24T15:32:29.005Z,27.49
2019-02-24T15:37:34.915Z,28.14
2019-02-24T15:42:40.530Z,26.83
2019-02-24T15:47:45.749Z,27.56
2019-02-24T15:52:51.059Z,28.98
2019-02-24T15:57:56.233Z,28.13
2019-02-24T16:03:02.119Z,27.73
2019-02-24T16:08:07.855Z,27.00
2019-02-24T16:13:17.005Z,25.51
2019-02-24T16:18:22.974Z,24.71
2019-02-24T16:23:28.215Z,25.31
2019-02-24T16:28:34.544Z,25.09
2019-02-24T16:33:39.769Z,24.59
2019-02-24T16:38:45.483Z,25.77
2019-02-24T16:43:50.749Z,29.17
2019-02-24T16:48:56.162Z,30.04
2019-02-24T16:54:01.498Z,28.66
2019-02-24T16:59:06.839Z,27.75
2019-02-24T17:04:12.238Z,27.64
2019-02-24T17:09:18.031Z,30.34
2019-02-24T17:14:24.910Z,32.13
2019-02-24T17:19:32.165Z,36.03
2019-02-24T17:24:37.552Z,37.78
2019-02-24T17:29:43.030Z,38.02
2019-02-24T17:34:48.195Z,38.15
2019-02-24T17:39:53.737Z,37.55
2019-02-24T17:44:59.050Z,37.82
2019-02-24T17:50:04.500Z,37.98
2019-02-24T17:55:10.757Z,38.19
2019-02-24T18:00:20.383Z,37.19
2019-02-24T18:05:25.781Z,36.66
2019-02-24T18:10:30.881Z,40.02
2019-02-24T18:15:36.577Z,40.90
2019-02-24T18:20:41.731Z,39.42
2019-02-24T18:25:47.812Z,39.42
2019-02-24T18:30:52.895Z,39.30
2019-02-24T18:35:59.861Z,38.58
2019-02-24T18:41:05.924Z,38.23
2019-02-24T18:46:11.495Z,38.35
2019-02-24T18:51:16.891Z,39.17
2019-02-24T18:56:21.974Z,36.53
2019-02-24T19:01:27.159Z,39.82
2019-02-24T19:06:38.986Z,41.93
2019-02-24T19:11:39.826Z,44.17
2019-02-24T19:16:45.336Z,43.75
2019-02-24T19:21:50.483Z,41.23
2019-02-24T19:26:56.720Z,39.90
2019-02-24T19:32:02.931Z,41.74
2019-02-24T19:37:08.389Z,43.42
2019-02-24T19:42:13.716Z,41.58
2019-02-24T19:47:19.195Z,40.64
2019-02-24T19:52:24.661Z,39.33
2019-02-24T19:57:29.900Z,38.94
2019-02-24T20:02:35.029Z,41.52
2019-02-24T20:07:40.588Z,42.92
2019-02-24T20:12:46.000Z,43.54
2019-02-24T20:17:51.153Z,44.29
2019-02-24T20:22:56.986Z,44.81
2019-02-24T20:28:02.620Z,45.45
2019-02-24T20:33:07.703Z,44.68
2019-02-24T20:38:13.409Z,45.09
2019-02-24T20:43:18.819Z,44.57
2019-02-24T20:48:25.461Z,44.15
2019-02-24T20:53:30.550Z,43.75
2019-02-24T20:58:36.360Z,44.22
2019-02-24T21:03:41.836Z,44.26
2019-02-24T21:08:47.197Z,44.44
2019-02-24T21:13:52.830Z,43.87
2019-02-24T21:18:58.319Z,42.89
2019-02-24T21:24:04.158Z,43.06
2019-02-24T21:29:09.314Z,42.86
2019-02-24T21:34:14.673Z,42.76
2019-02-24T21:39:20.636Z,43.18
2019-02-24T21:44:25.741Z,43.31
2019-02-24T21:49:31.140Z,45.97
2019-02-24T21:54:36.606Z,46.37
2019-02-24T21:59:41.693Z,46.89
2019-02-24T22:04:46.780Z,47.35
2019-02-24T22:09:52.820Z,46.72
2019-02-24T22:14:57.906Z,46.21
2019-02-24T22:20:02.981Z,47.66
2019-02-24T22:25:08.873Z,47.18
2019-02-24T22:30:15.582Z,47.37
2019-02-24T22:35:20.741Z,47.80
2019-02-24T22:40:26.198Z,47.95
2019-02-24T22:45:31.390Z,47.84
2019-02-24T22:50:36.482Z,48.01
2019-02-24T22:55:41.647Z,48.62
2019-02-24T23:00:57.596Z,49.10
2019-02-24T23:06:04.669Z,49.31
2019-02-24T23:11:09.899Z,49.49
2019-02-24T23:16:15.051Z,49.47
2019-02-24T23:21:20.269Z,49.27
2019-02-24T23:26:25.717Z,49.85
2019-02-24T23:31:30.877Z,50.02
2019-02-24T23:36:36.069Z,50.62
2019-02-24T23:41:41.130Z,51.16
2019-02-24T23:46:46.638Z,51.53
2019-02-24T23:51:51.718Z,51.77
2019-02-24T23:56:56.798Z,51.68
